| time (UTC) | temp F | wind direction | speed MPH | gust MPH | rain 1hr in | rain 24hr in | rain mn in | humidity % | barometer mb |
| 20260509172658 | 68 | 107 | 4.0 | 9.0 | 0.00 | 1.66 | 0.20 | 90 | 1012.8 |
| 20260509172159 | 68 | 106 | 5.0 | 9.0 | 0.00 | 1.69 | 0.20 | 89 | 1013.0 |
| 20260509171657 | 68 | 93 | 4.0 | 9.0 | 0.00 | 1.70 | 0.20 | 89 | 1012.9 |
| 20260509171157 | 69 | 94 | 3.0 | 7.0 | 0.00 | 1.88 | 0.20 | 89 | 1013.1 |
| 20260509170650 | 69 | 71 | 4.0 | 10.0 | 0.00 | 1.92 | 0.20 | 89 | 1013.1 |
| 20260509170148 | 69 | 87 | 5.0 | 13.0 | 0.00 | 1.95 | 0.20 | 89 | 1012.9 |
| 20260509165649 | 69 | 82 | 5.0 | 13.0 | 0.00 | 1.98 | 0.20 | 88 | 1012.9 |
| 20260509165151 | 69 | 113 | 5.0 | 13.0 | 0.00 | 2.00 | 0.20 | 88 | 1012.9 |
| 20260509164650 | 69 | 157 | 7.0 | 13.0 | 0.00 | 2.03 | 0.20 | 88 | 1013.0 |
| 20260509164151 | 69 | 111 | 7.0 | 12.0 | 0.00 | 2.07 | 0.20 | 88 | 1013.0 |
| 20260509163642 | 69 | 91 | 5.0 | 10.0 | 0.00 | 2.16 | 0.20 | 87 | 1012.9 |
| 20260509163144 | 70 | 89 | 5.0 | 10.0 | 0.00 | 2.55 | 0.20 | 88 | 1013.2 |
| 20260509162644 | 70 | 98 | 6.0 | 12.0 | 0.00 | 2.67 | 0.20 | 88 | 1013.3 |
| 20260509162145 | 70 | 137 | 6.0 | 12.0 | 0.00 | 2.68 | 0.20 | 88 | 1013.3 |
| 20260509161914 | 70 | 167 | 6.0 | 11.0 | 0.00 | 2.69 | 0.20 | 89 | 1013.2 |
| 20260509161414 | 70 | 46 | 6.0 | 13.0 | 0.00 | 2.70 | 0.20 | 90 | 1013.3 |
| 20260509160643 | 69 | 115 | 6.0 | 13.0 | 0.00 | 2.70 | 0.20 | 89 | 1013.4 |
| 20260509160139 | 69 | 108 | 6.0 | 10.0 | 0.00 | 2.70 | 0.20 | 89 | 1013.6 |
| 20260509155637 | 69 | 108 | 6.0 | 10.0 | 0.00 | 2.70 | 0.20 | 89 | 1013.7 |
| 20260509155138 | 69 | 125 | 6.0 | 11.0 | 0.00 | 2.70 | 0.20 | 90 | 1013.6 |
| 20260509154639 | 69 | 111 | 6.0 | 11.0 | 0.00 | 2.70 | 0.20 | 91 | 1013.4 |
| 20260509154139 | 68 | 87 | 4.0 | 9.0 | 0.00 | 2.70 | 0.20 | 91 | 1013.3 |
| 20260509153632 | 68 | 82 | 5.0 | 9.0 | 0.00 | 2.72 | 0.20 | 92 | 1013.2 |
| 20260509153133 | 68 | 104 | 5.0 | 8.0 | 0.00 | 2.87 | 0.20 | 92 | 1013.1 |
| 20260509152631 | 67 | 102 | 4.0 | 10.0 | 0.00 | 2.93 | 0.20 | 92 | 1013.1 |
| 20260509152132 | 67 | 105 | 5.0 | 10.0 | 0.00 | 2.94 | 0.20 | 93 | 1013.1 |
| 20260509151632 | 67 | 75 | 6.0 | 10.0 | 0.00 | 2.95 | 0.20 | 93 | 1013.3 |
| 20260509151131 | 67 | 125 | 5.0 | 10.0 | 0.00 | 2.95 | 0.20 | 93 | 1013.4 |
| 20260509150632 | 67 | 153 | 4.0 | 8.0 | 0.00 | 2.96 | 0.20 | 93 | 1013.3 |
| 20260509150130 | 67 | 112 | 3.0 | 8.0 | 0.00 | 2.97 | 0.20 | 93 | 1013.2 |
| 20260509145630 | 67 | 105 | 4.0 | 8.0 | 0.00 | 2.98 | 0.20 | 94 | 1012.9 |
| 20260509145131 | 67 | 82 | 4.0 | 8.0 | 0.00 | 3.01 | 0.20 | 94 | 1012.8 |
| 20260509144630 | 67 | 62 | 5.0 | 8.0 | 0.00 | 3.01 | 0.20 | 94 | 1012.8 |
| 20260509144131 | 67 | 101 | 3.0 | 9.0 | 0.00 | 3.02 | 0.20 | 94 | 1012.9 |
| 20260509143631 | 66 | 129 | 3.0 | 9.0 | 0.00 | 3.02 | 0.20 | 94 | 1012.9 |
| 20260509143126 | 66 | 145 | 6.0 | 14.0 | 0.00 | 3.02 | 0.20 | 93 | 1013.0 |
| 20260509142629 | 66 | 94 | 8.0 | 14.0 | 0.00 | 3.02 | 0.20 | 94 | 1012.7 |
| 20260509142126 | 66 | 69 | 5.0 | 13.0 | 0.00 | 3.02 | 0.20 | 94 | 1012.7 |
| 20260509141626 | 66 | 84 | 4.0 | 8.0 | 0.00 | 3.02 | 0.20 | 94 | 1012.9 |
| 20260509141127 | 66 | 121 | 4.0 | 11.0 | 0.01 | 3.02 | 0.20 | 94 | 1012.8 |
| 20260509140628 | 66 | 82 | 4.0 | 11.0 | 0.01 | 3.02 | 0.20 | 94 | 1013.1 |
| 20260509140126 | 67 | 92 | 4.0 | 9.0 | 0.01 | 3.02 | 0.20 | 94 | 1012.9 |
| 20260509135858 | 67 | 100 | 4.0 | 8.0 | 0.02 | 3.02 | 0.20 | 94 | 1012.8 |
| 20260509135127 | 67 | 88 | 3.0 | 7.0 | 0.05 | 3.02 | 0.20 | 94 | 1012.9 |
| 20260509134627 | 67 | 82 | 3.0 | 8.0 | 0.05 | 3.02 | 0.20 | 94 | 1012.9 |
| 20260509134129 | 67 | 96 | 3.0 | 9.0 | 0.05 | 3.02 | 0.20 | 94 | 1012.8 |
| 20260509133625 | 67 | 74 | 3.0 | 9.0 | 0.06 | 3.02 | 0.20 | 94 | 1012.7 |
| 20260509133126 | 67 | 69 | 3.0 | 7.0 | 0.06 | 3.02 | 0.20 | 94 | 1012.6 |
| 20260509132900 | 66 | 33 | 2.0 | 6.0 | 0.13 | 3.02 | 0.20 | 94 | 1012.5 |
| 20260509132624 | 67 | 86 | 3.0 | 7.0 | 0.12 | 3.02 | 0.20 | 95 | 1012.5 |
| 20260509131629 | 66 | 71 | 2.0 | 7.0 | 0.15 | 3.01 | 0.19 | 94 | 1012.6 |
| 20260509131623 | 66 | 81 | 2.0 | 7.0 | 0.15 | 3.02 | 0.20 | 94 | 1012.6 |
| 20260509130617 | 66 | 105 | 2.0 | 6.0 | 0.15 | 3.01 | 0.19 | 94 | 1012.6 |
| 20260509130113 | 66 | 68 | 3.0 | 7.0 | 0.16 | 3.01 | 0.19 | 94 | 1012.6 |
| 20260509125613 | 66 | 9 | 3.0 | 7.0 | 0.16 | 3.00 | 0.18 | 94 | 1012.6 |
| 20260509125111 | 66 | 57 | 2.0 | 8.0 | 0.14 | 2.97 | 0.16 | 94 | 1012.8 |
| 20260509124610 | 66 | 75 | 2.0 | 8.0 | 0.15 | 2.97 | 0.15 | 94 | 1012.7 |
| 20260509124106 | 66 | 13 | 3.0 | 8.0 | 0.15 | 2.97 | 0.15 | 94 | 1012.7 |
| 20260509123837 | 67 | 80 | 4.0 | 14.0 | 0.14 | 2.96 | 0.14 | 93 | 1012.8 |
| 20260509123339 | 67 | 99 | 4.0 | 14.0 | 0.14 | 2.96 | 0.14 | 93 | 1012.6 |
| 20260509122607 | 67 | 35 | 6.0 | 14.0 | 0.08 | 2.90 | 0.08 | 93 | 1012.5 |
| 20260509122106 | 67 | 27 | 6.0 | 16.0 | 0.07 | 2.89 | 0.07 | 93 | 1012.4 |
| 20260509121608 | 68 | 37 | 5.0 | 16.0 | 0.05 | 2.87 | 0.05 | 92 | 1012.4 |
| 20260509121106 | 69 | 90 | 4.0 | 15.0 | 0.04 | 2.86 | 0.04 | 93 | 1012.2 |
| 20260509120835 | 69 | 107 | 4.0 | 15.0 | 0.04 | 2.86 | 0.04 | 93 | 1012.3 |
| 20260509115602 | 70 | 86 | 4.0 | 11.0 | 0.02 | 2.84 | 0.02 | 95 | 1012.0 |
| 20260509115101 | 70 | 325 | 2.0 | 9.0 | 0.00 | 2.82 | 0.00 | 95 | 1012.3 |
| 20260509114557 | 70 | 20 | 0.0 | 3.0 | 0.00 | 2.82 | 0.00 | 95 | 1012.2 |
| 20260509114058 | 70 | 43 | 0.0 | 0.0 | 0.00 | 2.82 | 0.00 | 95 | 1012.1 |
| 20260509113550 | 70 | 43 | 0.0 | 0.0 | 0.00 | 2.82 | 0.00 | 95 | 1012.1 |
| 20260509113048 | 70 | 90 | 0.0 | 0.0 | 0.00 | 2.82 | 0.00 | 95 | 1011.9 |
| 20260509112547 | 70 | 92 | 0.0 | 0.0 | 0.00 | 2.82 | 0.00 | 95 | 1011.7 |
| 20260509112318 | 70 | 17 | 0.0 | 0.0 | 0.00 | 2.82 | 0.00 | 95 | 1011.7 |
| 20260509111546 | 70 | 17 | 0.0 | 0.0 | 0.00 | 2.82 | 0.00 | 95 | 1011.8 |
| 20260509111039 | 70 | 17 | 0.0 | 0.0 | 0.00 | 2.82 | 0.00 | 95 | 1011.6 |
| 20260509110536 | 70 | 17 | 0.0 | 0.0 | 0.00 | 2.82 | 0.00 | 95 | 1011.3 |
| 20260509110036 | 70 | 17 | 0.0 | 0.0 | 0.00 | 2.82 | 0.00 | 95 | 1011.5 |
| 20260509105537 | 70 | 17 | 0.0 | 0.0 | 0.00 | 2.82 | 0.00 | 95 | 1011.5 |
| 20260509105035 | 70 | 17 | 0.0 | 0.0 | 0.00 | 2.82 | 0.00 | 95 | 1011.4 |
| 20260509104537 | 70 | 90 | 0.0 | 0.0 | 0.00 | 2.82 | 0.00 | 94 | 1011.4 |
| 20260509104029 | 70 | 105 | 0.0 | 0.0 | 0.00 | 2.82 | 0.00 | 94 | 1011.1 |
| 20260509103528 | 70 | 105 | 0.0 | 0.0 | 0.00 | 2.82 | 0.00 | 94 | 1010.9 |
| 20260509103028 | 70 | 105 | 0.0 | 0.0 | 0.00 | 2.82 | 0.00 | 94 | 1010.9 |
| 20260509102528 | 70 | 105 | 1.0 | 4.0 | 0.00 | 2.82 | 0.00 | 94 | 1011.0 |
| 20260509102028 | 70 | 105 | 2.0 | 5.0 | 0.00 | 2.82 | 0.00 | 94 | 1010.8 |
| 20260509101530 | 70 | 169 | 2.0 | 5.0 | 0.00 | 2.82 | 0.00 | 94 | 1010.8 |
| 20260509101028 | 70 | 153 | 1.0 | 4.0 | 0.00 | 2.82 | 0.00 | 94 | 1011.0 |
| 20260509100524 | 70 | 148 | 1.0 | 3.0 | 0.00 | 2.82 | 0.00 | 94 | 1011.0 |
| 20260509100025 | 70 | 148 | 1.0 | 5.0 | 0.00 | 2.82 | 0.00 | 94 | 1010.9 |
| 20260509095758 | 70 | 148 | 1.0 | 5.0 | 0.00 | 2.82 | 0.00 | 95 | 1010.9 |
| 20260509095023 | 70 | 161 | 1.0 | 5.0 | 0.00 | 2.82 | 0.00 | 95 | 1010.8 |
| 20260509094522 | 70 | 140 | 1.0 | 6.0 | 0.00 | 2.82 | 0.00 | 95 | 1010.8 |
| 20260509094021 | 70 | 157 | 2.0 | 6.0 | 0.00 | 2.82 | 0.00 | 95 | 1010.8 |
| 20260509093518 | 70 | 159 | 2.0 | 5.0 | 0.00 | 2.82 | 0.00 | 95 | 1010.6 |
| 20260509093019 | 70 | 140 | 2.0 | 5.0 | 0.00 | 2.82 | 0.00 | 95 | 1010.6 |
| 20260509092520 | 70 | 150 | 2.0 | 5.0 | 0.00 | 2.82 | 0.00 | 95 | 1010.5 |
| 20260509092018 | 69 | 150 | 2.0 | 5.0 | 0.00 | 2.82 | 0.00 | 95 | 1010.7 |
| 20260509091518 | 69 | 182 | 2.0 | 6.0 | 0.00 | 2.82 | 0.00 | 95 | 1010.6 |
| 20260509091010 | 69 | 175 | 3.0 | 8.0 | 0.00 | 2.82 | 0.00 | 95 | 1010.5 |
| 20260509090510 | 69 | 155 | 3.0 | 8.0 | 0.00 | 2.82 | 0.00 | 95 | 1010.5 |
| 20260509090009 | 69 | 170 | 4.0 | 8.0 | 0.00 | 2.82 | 0.00 | 95 | 1010.3 |
| 20260509085742 | 69 | 155 | 3.0 | 8.0 | 0.00 | 2.82 | 0.00 | 95 | 1010.3 |
| 20260509085249 | 69 | 164 | 2.0 | 6.0 | 0.00 | 2.82 | 0.00 | 95 | 1010.3 |
| 20260509085012 | 69 | 147 | 2.0 | 7.0 | 0.00 | 2.82 | 0.00 | 95 | 1010.3 |
| 20260509084631 | 69 | 134 | 2.0 | 6.0 | 0.00 | 2.82 | 0.00 | 95 | 1010.5 |
| 20260509083506 | 69 | 139 | 2.0 | 6.0 | 0.00 | 2.82 | 0.00 | 95 | 1010.5 |
| 20260509083008 | 69 | 115 | 3.0 | 5.0 | 0.00 | 2.82 | 0.00 | 95 | 1010.5 |
| 20260509082504 | 69 | 110 | 3.0 | 6.0 | 0.00 | 2.82 | 0.00 | 95 | 1010.5 |
| 20260509082005 | 69 | 120 | 3.0 | 6.0 | 0.00 | 2.82 | 0.00 | 95 | 1010.7 |
| 20260509081504 | 69 | 126 | 3.0 | 6.0 | 0.00 | 2.82 | 0.00 | 95 | 1010.8 |
| 20260509081001 | 69 | 117 | 3.0 | 6.0 | 0.00 | 2.82 | 0.00 | 95 | 1010.9 |
| 20260509080502 | 69 | 123 | 3.0 | 6.0 | 0.00 | 2.82 | 0.00 | 95 | 1011.1 |
| 20260509080233 | 69 | 120 | 2.0 | 4.0 | 0.00 | 2.82 | 0.00 | 95 | 1011.2 |
| 20260509075734 | 68 | 128 | 2.0 | 4.0 | 0.00 | 2.82 | 0.00 | 95 | 1011.2 |
| 20260509074959 | 69 | 127 | 2.0 | 4.0 | 0.00 | 2.82 | 0.00 | 95 | 1011.2 |
| 20260509074500 | 68 | 113 | 2.0 | 4.0 | 0.00 | 2.82 | 0.00 | 95 | 1011.2 |
| 20260509073957 | 68 | 106 | 2.0 | 4.0 | 0.00 | 2.82 | 0.00 | 95 | 1011.3 |
| 20260509073456 | 68 | 127 | 2.0 | 6.0 | 0.00 | 2.82 | 0.00 | 95 | 1011.3 |
| 20260509072952 | 68 | 166 | 3.0 | 6.0 | 0.00 | 2.82 | 0.00 | 95 | 1011.4 |
| 20260509072453 | 68 | 145 | 2.0 | 6.0 | 0.00 | 2.82 | 0.00 | 95 | 1011.3 |
| 20260509071953 | 68 | 126 | 2.0 | 6.0 | 0.00 | 2.82 | 0.00 | 95 | 1011.6 |
| 20260509071450 | 68 | 88 | 2.0 | 3.0 | 0.00 | 2.82 | 0.00 | 95 | 1011.7 |
| 20260509070950 | 68 | 88 | 1.0 | 3.0 | 0.00 | 2.82 | 0.00 | 95 | 1011.8 |
| 20260509070448 | 68 | 98 | 1.0 | 2.0 | 0.00 | 2.82 | 0.00 | 95 | 1011.9 |
| 20260509065949 | 68 | 98 | 1.0 | 2.0 | 0.00 | 2.82 | 0.00 | 95 | 1012.0 |
| 20260509065445 | 68 | 98 | 1.0 | 2.0 | 0.00 | 2.82 | 0.00 | 94 | 1012.0 |
| 20260509065336 | 68 | 98 | 2.0 | 2.0 | 0.00 | 2.82 | 0.00 | 95 | 1012.1 |
| 20260509065223 | 68 | 98 | 1.0 | 2.0 | 0.00 | 2.82 | 0.00 | 94 | 1012.0 |
| 20260509063945 | 68 | 98 | 1.0 | 2.0 | 0.00 | 2.82 | 0.00 | 95 | 1012.0 |
| 20260509063446 | 69 | 98 | 1.0 | 2.0 | 0.00 | 2.82 | 0.00 | 95 | 1012.2 |
| 20260509062948 | 69 | 98 | 1.0 | 4.0 | 0.00 | 2.82 | 0.00 | 95 | 1012.1 |
| 20260509062443 | 69 | 98 | 2.0 | 4.0 | 0.00 | 2.82 | 0.00 | 95 | 1012.0 |
| 20260509061941 | 69 | 137 | 2.0 | 3.0 | 0.00 | 2.82 | 0.00 | 95 | 1012.0 |
| 20260509061442 | 69 | 115 | 2.0 | 3.0 | 0.00 | 2.82 | 0.00 | 95 | 1012.2 |
| 20260509060941 | 69 | 76 | 2.0 | 3.0 | 0.00 | 2.82 | 0.00 | 94 | 1012.2 |
| 20260509060712 | 69 | 76 | 1.0 | 2.0 | 0.00 | 2.82 | 0.00 | 94 | 1012.4 |
| 20260509055942 | 69 | 76 | 1.0 | 2.0 | 0.00 | 2.82 | 0.00 | 94 | 1012.6 |
| 20260509055710 | 69 | 76 | 1.0 | 2.0 | 0.00 | 2.82 | 0.00 | 94 | 1012.8 |
| 20260509054938 | 69 | 76 | 1.0 | 2.0 | 0.00 | 2.82 | 0.00 | 94 | 1012.8 |
| 20260509054440 | 69 | 155 | 0.0 | 2.0 | 0.00 | 2.82 | 0.00 | 94 | 1012.9 |
| 20260509053937 | 69 | 155 | 1.0 | 5.0 | 0.00 | 2.82 | 0.00 | 94 | 1013.0 |
| 20260509053438 | 69 | 169 | 2.0 | 5.0 | 0.00 | 2.82 | 0.00 | 94 | 1012.8 |
| 20260509052934 | 69 | 153 | 2.0 | 5.0 | 0.00 | 2.82 | 0.00 | 94 | 1012.6 |
| 20260509052435 | 69 | 132 | 2.0 | 6.0 | 0.00 | 2.82 | 0.00 | 94 | 1012.4 |
| 20260509051931 | 69 | 131 | 3.0 | 6.0 | 0.00 | 2.82 | 0.00 | 94 | 1012.5 |
| 20260509051430 | 69 | 147 | 2.0 | 5.0 | 0.00 | 2.82 | 0.00 | 94 | 1012.7 |
| 20260509051204 | 69 | 132 | 2.0 | 5.0 | 0.00 | 2.82 | 0.00 | 94 | 1012.6 |
| 20260509050444 | 69 | 132 | 2.0 | 4.0 | 0.00 | 2.82 | 0.00 | 94 | 1012.7 |
| 20260509045930 | 69 | 130 | 2.0 | 4.0 | 0.00 | 2.82 | 2.82 | 94 | 1012.7 |
| 20260509045430 | 69 | 119 | 2.0 | 4.0 | 0.00 | 2.82 | 2.82 | 94 | 1012.8 |
| 20260509044931 | 69 | 130 | 1.0 | 3.0 | 0.00 | 2.82 | 2.82 | 94 | 1013.0 |
| 20260509044427 | 69 | 107 | 1.0 | 3.0 | 0.00 | 2.82 | 2.82 | 94 | 1013.0 |
| 20260509043927 | 69 | 112 | 1.0 | 3.0 | 0.00 | 2.82 | 2.82 | 94 | 1013.0 |
| 20260509043656 | 69 | 82 | 0.0 | 2.0 | 0.00 | 2.82 | 2.82 | 94 | 1013.0 |
| 20260509042925 | 69 | 82 | 0.0 | 2.0 | 0.00 | 2.82 | 2.82 | 94 | 1013.2 |
| 20260509042423 | 69 | 82 | 1.0 | 2.0 | 0.00 | 2.82 | 2.82 | 94 | 1013.2 |
| 20260509041921 | 69 | 82 | 1.0 | 2.0 | 0.00 | 2.82 | 2.82 | 94 | 1013.2 |
| 20260509041417 | 69 | 75 | 1.0 | 2.0 | 0.00 | 2.82 | 2.82 | 94 | 1013.2 |
| 20260509040917 | 69 | 75 | 1.0 | 3.0 | 0.00 | 2.82 | 2.82 | 94 | 1013.2 |
| 20260509040417 | 69 | 75 | 1.0 | 3.0 | 0.00 | 2.82 | 2.82 | 94 | 1013.3 |
| 20260509040148 | 69 | 75 | 1.0 | 3.0 | 0.00 | 2.82 | 2.82 | 94 | 1013.2 |
| 20260509035415 | 69 | 68 | 1.0 | 3.0 | 0.00 | 2.82 | 2.82 | 94 | 1013.4 |
| 20260509034914 | 69 | 30 | 1.0 | 3.0 | 0.00 | 2.82 | 2.82 | 94 | 1013.3 |
| 20260509034410 | 69 | 96 | 1.0 | 4.0 | 0.03 | 2.82 | 2.82 | 94 | 1013.3 |
| 20260509033905 | 69 | 96 | 2.0 | 4.0 | 0.11 | 2.82 | 2.82 | 94 | 1013.2 |
| 20260509033636 | 69 | 50 | 1.0 | 2.0 | 0.12 | 2.82 | 2.82 | 94 | 1013.1 |
| 20260509032903 | 69 | 24 | 1.0 | 2.0 | 0.13 | 2.82 | 2.82 | 94 | 1013.1 |
| 20260509032403 | 69 | 32 | 1.0 | 3.0 | 0.13 | 2.82 | 2.82 | 94 | 1013.1 |
| 20260509031901 | 69 | 112 | 2.0 | 6.0 | 0.13 | 2.82 | 2.82 | 94 | 1013.0 |
| 20260509031401 | 69 | 97 | 2.0 | 6.0 | 0.13 | 2.82 | 2.82 | 94 | 1012.8 |
| 20260509030902 | 69 | 105 | 3.0 | 7.0 | 0.13 | 2.82 | 2.82 | 94 | 1012.9 |
| 20260509030400 | 69 | 114 | 3.0 | 7.0 | 0.13 | 2.82 | 2.82 | 94 | 1012.9 |
| 20260509025857 | 69 | 122 | 2.0 | 9.0 | 0.13 | 2.82 | 2.82 | 94 | 1012.8 |
| 20260509025358 | 69 | 14 | 3.0 | 9.0 | 0.13 | 2.82 | 2.82 | 94 | 1013.0 |
| 20260509024855 | 69 | 94 | 5.0 | 10.0 | 0.13 | 2.82 | 2.82 | 94 | 1012.8 |
| 20260509024628 | 69 | 100 | 4.0 | 10.0 | 0.10 | 2.79 | 2.81 | 94 | 1012.4 |
| 20260509023854 | 69 | 128 | 1.0 | 3.0 | 0.02 | 2.71 | 2.71 | 94 | 1013.2 |
| 20260509023353 | 69 | 308 | 1.0 | 3.0 | 0.01 | 2.70 | 2.70 | 94 | 1013.4 |
| 20260509022852 | 69 | 308 | 0.0 | 40.0 | 0.00 | 2.69 | 2.69 | 94 | 1013.6 |
| 20260509022351 | 69 | 80 | 1.0 | 40.0 | 0.00 | 2.69 | 2.69 | 94 | 1012.9 |
| 20260509021844 | 69 | 80 | 2.0 | 7.0 | 0.00 | 2.69 | 2.69 | 94 | 1012.6 |
| 20260509021342 | 69 | 92 | 4.0 | 7.0 | 0.00 | 2.69 | 2.69 | 94 | 1012.0 |
| 20260509020842 | 69 | 132 | 3.0 | 7.0 | 0.00 | 2.69 | 2.69 | 94 | 1011.6 |
| 20260509020339 | 69 | 125 | 3.0 | 8.0 | 0.00 | 2.69 | 2.69 | 94 | 1011.7 |
| 20260509015838 | 69 | 146 | 3.0 | 8.0 | 0.00 | 2.69 | 2.69 | 94 | 1011.9 |
| 20260509015335 | 69 | 114 | 2.0 | 6.0 | 0.00 | 2.69 | 2.69 | 94 | 1011.9 |
| 20260509014956 | 69 | 126 | 1.0 | 4.0 | 0.00 | 2.69 | 2.69 | 94 | 1012.0 |
| 20260509014845 | 69 | 96 | 2.0 | 4.0 | 0.00 | 2.69 | 2.69 | 94 | 1011.9 |
| 20260509014610 | 69 | 126 | 2.0 | 4.0 | 0.00 | 2.69 | 2.69 | 94 | 1012.0 |
| 20260509013605 | 69 | 124 | 1.0 | 2.0 | 0.00 | 2.69 | 2.69 | 94 | 1012.0 |
| 20260509012833 | 69 | 138 | 2.0 | 3.0 | 0.00 | 2.69 | 2.69 | 94 | 1012.0 |
| 20260509012330 | 69 | 109 | 1.0 | 3.0 | 0.00 | 2.69 | 2.69 | 94 | 1012.0 |
| 20260509011831 | 69 | 98 | 0.0 | 2.0 | 0.00 | 2.69 | 2.69 | 94 | 1012.1 |
| 20260509011330 | 69 | 98 | 0.0 | 2.0 | 0.00 | 2.69 | 2.69 | 94 | 1012.3 |
| 20260509010829 | 69 | 98 | 1.0 | 2.0 | 0.00 | 2.69 | 2.69 | 94 | 1012.4 |
| 20260509010330 | 69 | 98 | 1.0 | 4.0 | 0.00 | 2.69 | 2.69 | 94 | 1012.2 |
| 20260509005830 | 69 | 98 | 2.0 | 4.0 | 0.00 | 2.69 | 2.69 | 94 | 1012.3 |
| 20260509005330 | 69 | 86 | 2.0 | 3.0 | 0.00 | 2.69 | 2.69 | 94 | 1012.2 |
| 20260509004827 | 69 | 86 | 2.0 | 4.0 | 0.00 | 2.69 | 2.69 | 94 | 1012.3 |
| 20260509004557 | 69 | 92 | 2.0 | 4.0 | 0.00 | 2.69 | 2.69 | 94 | 1012.1 |
| 20260509004059 | 69 | 88 | 2.0 | 4.0 | 0.00 | 2.69 | 2.69 | 94 | 1012.4 |
| 20260509003327 | 69 | 93 | 3.0 | 9.0 | 0.00 | 2.69 | 2.69 | 93 | 1012.4 |
| 20260509002825 | 70 | 69 | 3.0 | 9.0 | 0.00 | 2.69 | 2.69 | 93 | 1012.5 |
| 20260509002325 | 70 | 128 | 4.0 | 9.0 | 0.00 | 2.69 | 2.69 | 93 | 1012.5 |
| 20260509001824 | 70 | 84 | 3.0 | 9.0 | 0.00 | 2.69 | 2.69 | 94 | 1012.2 |
| 20260509001319 | 70 | 106 | 1.0 | 5.0 | 0.00 | 2.69 | 2.69 | 94 | 1012.4 |
| 20260509000820 | 70 | 40 | 1.0 | 3.0 | 0.00 | 2.69 | 2.69 | 94 | 1012.5 |
| 20260509000320 | 70 | 40 | 1.0 | 3.0 | 0.00 | 2.69 | 2.69 | 94 | 1012.5 |
| 20260508235819 | 70 | 15 | 1.0 | 3.0 | 0.00 | 2.69 | 2.69 | 94 | 1012.2 |
| 20260508235320 | 70 | 49 | 2.0 | 4.0 | 0.00 | 2.69 | 2.69 | 94 | 1012.1 |
| 20260508234815 | 70 | 81 | 2.0 | 4.0 | 0.00 | 2.69 | 2.69 | 94 | 1012.0 |
| 20260508234317 | 70 | 84 | 3.0 | 4.0 | 0.00 | 2.69 | 2.69 | 94 | 1011.8 |
| 20260508233816 | 70 | 100 | 3.0 | 4.0 | 0.00 | 2.69 | 2.69 | 94 | 1011.8 |
| 20260508233316 | 70 | 128 | 2.0 | 4.0 | 0.00 | 2.69 | 2.69 | 94 | 1011.9 |
| 20260508232817 | 70 | 110 | 2.0 | 4.0 | 0.00 | 2.69 | 2.69 | 94 | 1012.1 |
| 20260508232315 | 70 | 97 | 2.0 | 4.0 | 0.00 | 2.69 | 2.69 | 94 | 1012.0 |
| 20260508231814 | 70 | 97 | 2.0 | 6.0 | 0.00 | 2.69 | 2.69 | 94 | 1011.9 |
| 20260508231544 | 70 | 104 | 4.0 | 8.0 | 0.01 | 2.69 | 2.69 | 94 | 1011.7 |
| 20260508231047 | 70 | 55 | 3.0 | 8.0 | 0.01 | 2.69 | 2.69 | 94 | 1011.3 |
| 20260508230309 | 70 | 121 | 1.0 | 5.0 | 0.01 | 2.69 | 2.69 | 94 | 1011.8 |
| 20260508225809 | 69 | 15 | 1.0 | 3.0 | 0.01 | 2.69 | 2.69 | 94 | 1012.2 |
| 20260508225548 | 69 | 348 | 1.0 | 6.0 | 0.01 | 2.69 | 2.69 | 94 | 1012.5 |
| 20260508225310 | 69 | 15 | 1.0 | 4.0 | 0.01 | 2.69 | 2.69 | 94 | 1012.4 |
| 20260508224310 | 69 | 28 | 2.0 | 6.0 | 0.01 | 2.69 | 2.69 | 94 | 1012.4 |
| 20260508223810 | 69 | 37 | 3.0 | 7.0 | 0.01 | 2.69 | 2.69 | 94 | 1012.3 |
| 20260508223305 | 70 | 76 | 4.0 | 7.0 | 0.03 | 2.69 | 2.69 | 94 | 1012.0 |
| 20260508222807 | 70 | 135 | 5.0 | 11.0 | 0.07 | 2.69 | 2.69 | 94 | 1011.8 |
| 20260508222307 | 70 | 129 | 4.0 | 11.0 | 0.07 | 2.69 | 2.69 | 95 | 1012.0 |
| 20260508221805 | 69 | 113 | 4.0 | 10.0 | 0.07 | 2.69 | 2.69 | 95 | 1012.2 |
| 20260508221305 | 69 | 91 | 5.0 | 10.0 | 0.06 | 2.68 | 2.68 | 94 | 1011.8 |
| 20260508220806 | 69 | 107 | 4.0 | 9.0 | 0.06 | 2.68 | 2.68 | 94 | 1011.7 |
| 20260508220306 | 69 | 102 | 4.0 | 9.0 | 0.06 | 2.68 | 2.68 | 94 | 1012.2 |
| 20260508215803 | 69 | 95 | 4.0 | 9.0 | 0.06 | 2.68 | 2.68 | 94 | 1012.3 |
| 20260508215306 | 69 | 110 | 4.0 | 9.0 | 0.06 | 2.68 | 2.68 | 94 | 1012.2 |
| 20260508214803 | 68 | 143 | 3.0 | 8.0 | 0.06 | 2.68 | 2.68 | 94 | 1012.7 |
| 20260508214304 | 68 | 128 | 4.0 | 12.0 | 0.06 | 2.68 | 2.68 | 94 | 1012.7 |
| 20260508213805 | 68 | 176 | 4.0 | 12.0 | 0.05 | 2.67 | 2.68 | 94 | 1012.8 |
| 20260508213259 | 68 | 136 | 2.0 | 6.0 | 0.04 | 2.66 | 2.66 | 94 | 1013.2 |
| 20260508212801 | 68 | 103 | 2.0 | 4.0 | 0.03 | 2.62 | 2.62 | 94 | 1013.2 |
| 20260508212259 | 68 | 127 | 2.0 | 8.0 | 0.03 | 2.62 | 2.62 | 93 | 1013.0 |
| 20260508211758 | 68 | 121 | 3.0 | 9.0 | 0.03 | 2.62 | 2.62 | 93 | 1013.1 |
| 20260508211258 | 68 | 154 | 3.0 | 9.0 | 0.03 | 2.62 | 2.62 | 93 | 1013.1 |
| 20260508210759 | 68 | 152 | 4.0 | 10.0 | 0.03 | 2.62 | 2.62 | 93 | 1013.1 |
| 20260508210252 | 68 | 124 | 4.0 | 10.0 | 0.03 | 2.62 | 2.62 | 93 | 1012.9 |
| 20260508205752 | 68 | 130 | 4.0 | 12.0 | 0.03 | 2.62 | 2.62 | 93 | 1013.1 |
| 20260508205254 | 68 | 115 | 5.0 | 12.0 | 0.03 | 2.62 | 2.62 | 93 | 1013.2 |
| 20260508204749 | 68 | 127 | 5.0 | 12.0 | 0.03 | 2.62 | 2.62 | 93 | 1013.4 |
| 20260508204248 | 69 | 145 | 5.0 | 10.0 | 0.03 | 2.62 | 2.62 | 93 | 1013.3 |
| 20260508203748 | 69 | 136 | 5.0 | 10.0 | 0.03 | 2.62 | 2.62 | 93 | 1013.3 |
| 20260508203250 | 69 | 126 | 5.0 | 13.0 | 0.03 | 2.62 | 2.62 | 93 | 1013.2 |
| 20260508202744 | 69 | 112 | 4.0 | 13.0 | 0.00 | 2.59 | 2.60 | 93 | 1013.5 |
| 20260508202516 | 69 | 119 | 4.0 | 10.0 | 0.00 | 2.59 | 2.59 | 93 | 1013.6 |
| 20260508201743 | 69 | 108 | 6.0 | 11.0 | 0.00 | 2.59 | 2.59 | 93 | 1013.5 |
| 20260508201245 | 69 | 115 | 6.0 | 11.0 | 0.02 | 2.59 | 2.59 | 94 | 1013.5 |
| 20260508200743 | 69 | 107 | 6.0 | 11.0 | 0.03 | 2.59 | 2.59 | 94 | 1013.3 |
| 20260508200245 | 69 | 102 | 6.0 | 17.0 | 0.04 | 2.59 | 2.59 | 94 | 1013.2 |
| 20260508200013 | 68 | 127 | 7.0 | 17.0 | 0.08 | 2.59 | 2.59 | 94 | 1013.2 |
| 20260508195240 | 68 | 117 | 7.0 | 17.0 | 0.10 | 2.59 | 2.59 | 94 | 1013.4 |
| 20260508194740 | 68 | 165 | 7.0 | 17.0 | 0.12 | 2.59 | 2.59 | 94 | 1013.2 |
| 20260508194241 | 68 | 123 | 6.0 | 14.0 | 0.14 | 2.59 | 2.59 | 94 | 1013.1 |
| 20260508193737 | 67 | 134 | 7.0 | 13.0 | 0.18 | 2.59 | 2.59 | 94 | 1013.0 |
| 20260508193237 | 67 | 108 | 7.0 | 13.0 | 0.19 | 2.59 | 2.59 | 94 | 1012.8 |
| 20260508193004 | 67 | 109 | 7.0 | 13.0 | 0.24 | 2.59 | 2.59 | 94 | 1012.7 |
| 20260508192503 | 67 | 169 | 6.0 | 13.0 | 0.26 | 2.59 | 2.59 | 94 | 1012.9 |
| 20260508191734 | 67 | 142 | 5.0 | 10.0 | 0.34 | 2.59 | 2.59 | 94 | 1013.1 |
| 20260508191234 | 67 | 134 | 5.0 | 10.0 | 0.36 | 2.57 | 2.58 | 94 | 1013.3 |
| 20260508190733 | 67 | 112 | 5.0 | 10.0 | 0.42 | 2.56 | 2.56 | 94 | 1013.3 |
| 20260508190502 | 67 | 125 | 5.0 | 10.0 | 0.44 | 2.53 | 2.54 | 94 | 1013.4 |
| 20260508185727 | 67 | 101 | 3.0 | 6.0 | 0.48 | 2.51 | 2.51 | 94 | 1014.0 |
| 20260508185228 | 67 | 89 | 3.0 | 8.0 | 0.63 | 2.49 | 2.49 | 94 | 1014.0 |
| 20260508184956 | 67 | 68 | 5.0 | 9.0 | 0.99 | 2.47 | 2.47 | 94 | 1014.0 |
| 20260508184226 | 67 | 78 | 6.0 | 9.0 | 0.98 | 2.45 | 2.45 | 94 | 1014.2 |
| 20260508183726 | 67 | 99 | 4.0 | 9.0 | 0.94 | 2.41 | 2.42 | 94 | 1014.4 |
| 20260508183229 | 67 | 114 | 4.0 | 9.0 | 0.97 | 2.40 | 2.40 | 94 | 1014.3 |
| 20260508183221 | 66 | 245 | 5.0 | 9.0 | 0.96 | 2.35 | 2.36 | 94 | 1014.2 |
| 20260508182220 | 67 | 73 | 5.0 | 12.0 | 1.00 | 2.33 | 2.33 | 94 | 1014.0 |
| 20260508181951 | 66 | 90 | 5.0 | 12.0 | 0.93 | 2.25 | 2.25 | 94 | 1014.1 |
| 20260508181219 | 66 | 117 | 3.0 | 11.0 | 1.06 | 2.20 | 2.21 | 94 | 1014.3 |
| 20260508180720 | 66 | 91 | 3.0 | 8.0 | 1.03 | 2.14 | 2.16 | 94 | 1014.5 |
| 20260508180220 | 66 | 64 | 2.0 | 6.0 | 1.02 | 2.09 | 2.10 | 94 | 1014.7 |
| 20260508175713 | 66 | 29 | 2.0 | 8.0 | 0.99 | 2.03 | 2.03 | 94 | 1015.6 |
| 20260508174715 | 66 | 291 | 2.0 | 10.0 | 0.49 | 1.48 | 1.48 | 94 | 1016.6 |
| 20260508174213 | 66 | 33 | 3.0 | 10.0 | 0.52 | 1.47 | 1.47 | 94 | 1015.0 |
| 20260508173946 | 66 | 106 | 5.0 | 11.0 | 0.59 | 1.47 | 1.47 | 94 | 1014.9 |
| 20260508173213 | 66 | 111 | 5.0 | 11.0 | 0.79 | 1.43 | 1.44 | 94 | 1014.7 |